Hauptseite
METAR-TAF:

METAR-TAF

Flughäfen :

Militärflugplatz Kleine Brogel

Peer, Belgien

Breite: 51-10N, Länge: 005-28E, Höhe: 55 m

Beobachtung

Neuester Wetterbericht von vor 13 Stunden und 0 Minuten, um 15:25 UTC
Wind 12 kt aus West/Südwest
Temperatur 21°C
Luftfeuchtigkeit 53%
Luftdruck 1029 hPa
Sichtweite 10 km oder mehr

METAR: EBBL 121525Z AUTO 24012KT 9999 FEW044/// 21/11 Q1029 BLU

Zeit: 06:25 (04:25 UTC)

Prognose

Neuester Wetterbericht von vor 12 Stunden und 44 Minuten, um 15:41 UTC
Gültige Prognose vom 12 um 19 UTC bis 13 um 07 UTC
Wind 10 kt aus West/Südwest
Sichtweite 10 km oder mehr
Aufgelockert bewölkt in der Höhe von 3500 ft
Aufgelockert bewölkt in der Höhe von 25000 ft

TAF: EBBL 121541Z 1219/1307 24010KT 9999 SCT035 SCT250

Wetterbeobachtungen und Prognosen von mehr als 4000 Flughäfen (METAR und TAF Bericht).

Die verfügbaren Stationen werden durch gelbe und rote Markierungen auf der Karte dargestellt.

Führen Sie die Maus auf sie, um den Namen der Station zu sehen.

Darauf klicken, um die Beobachtung von Wetterbeobachtungen und Prognosen zu sehen.

Um die Karte zu ändern : klicken Sie auf den grünen Tasten mit einem schwarzen Kreuz Zum Vergrößern, auf den grünen Button mit einem Gedankenstrich zu verkleinern, oder auf die grünen Pfeile für benachbarte Karten.


METAR-TAF: